createdAt,value
2022-09-05T00:01:28.192Z,3.78
2022-09-05T00:04:24.325Z,2.92
2022-09-05T00:07:00.880Z,2.65
2022-09-05T00:09:58.896Z,2.53
2022-09-05T00:12:29.367Z,3.35
2022-09-05T00:15:17.647Z,2.85
2022-09-05T00:20:48.061Z,3.58
2022-09-05T00:24:19.519Z,2.50
2022-09-05T00:24:34.755Z,2.15
2022-09-05T00:27:00.388Z,2.65
2022-09-05T00:31:07.044Z,7.20
2022-09-05T00:33:16.868Z,2.50
2022-09-05T00:36:10.470Z,2.92
2022-09-05T00:38:42.639Z,2.30
2022-09-05T00:41:13.860Z,3.35
2022-09-05T00:43:45.647Z,2.30
2022-09-05T00:46:17.713Z,2.20
2022-09-05T00:48:51.952Z,2.30
2022-09-05T00:51:34.962Z,2.63
2022-09-05T00:54:41.385Z,2.35
2022-09-05T00:57:35.779Z,2.55
2022-09-05T01:00:17.240Z,2.30
2022-09-05T01:03:19.244Z,5.15
2022-09-05T01:06:01.032Z,3.35
2022-09-05T01:08:52.779Z,3.25
2022-09-05T01:11:37.825Z,2.50
2022-09-05T01:14:18.220Z,2.42
2022-09-05T01:17:13.728Z,1.90
2022-09-05T01:20:04.714Z,2.80
2022-09-05T01:23:08.345Z,3.25
2022-09-05T01:26:00.385Z,2.40
2022-09-05T01:29:13.851Z,3.25
2022-09-05T01:31:32.472Z,2.00
2022-09-05T01:34:10.676Z,2.50
2022-09-05T01:36:59.539Z,3.30
2022-09-05T01:40:16.189Z,2.83
2022-09-05T01:42:39.789Z,2.50
2022-09-05T01:45:17.145Z,2.17
2022-09-05T01:47:55.539Z,3.28
2022-09-05T01:50:40.519Z,2.58
2022-09-05T01:53:25.495Z,2.28
2022-09-05T01:56:14.955Z,2.58
2022-09-05T01:58:56.770Z,2.67
2022-09-05T02:01:33.480Z,3.50
2022-09-05T02:04:31.005Z,2.38
2022-09-05T02:07:30.395Z,3.50
2022-09-05T02:10:16.215Z,2.80
2022-09-05T02:12:56.783Z,4.18
2022-09-05T02:15:42.921Z,3.00
2022-09-05T02:18:33.699Z,3.83
2022-09-05T02:21:04.486Z,2.47
2022-09-05T02:23:42.627Z,3.33
2022-09-05T02:26:18.586Z,2.67
2022-09-05T02:28:56.735Z,2.80
2022-09-05T02:31:32.971Z,2.80
2022-09-05T02:34:09.431Z,4.43
2022-09-05T02:36:44.675Z,2.38
2022-09-05T02:45:00.381Z,4.00
2022-09-05T02:45:20.766Z,4.47
2022-09-05T02:45:31.027Z,4.45
2022-09-05T02:48:15.567Z,2.60
2022-09-05T02:57:25.983Z,2.70
2022-09-05T02:57:34.409Z,2.90
2022-09-05T02:58:04.691Z,2.42
2022-09-05T03:00:02.252Z,5.68
2022-09-05T03:02:38.055Z,2.78
2022-09-05T03:05:13.119Z,3.08
2022-09-05T03:08:12.697Z,2.47
2022-09-05T03:11:12.964Z,3.67
2022-09-05T03:14:12.214Z,2.50
2022-09-05T03:17:14.989Z,2.90
2022-09-05T03:20:13.250Z,3.28
2022-09-05T03:23:17.453Z,4.78
2022-09-05T03:26:34.371Z,2.97
2022-09-05T03:29:35.646Z,3.55
2022-09-05T03:32:48.807Z,2.50
2022-09-05T03:36:05.631Z,2.83
2022-09-05T03:39:12.131Z,2.65
2022-09-05T03:42:05.657Z,2.35
2022-09-05T03:45:01.111Z,2.67
2022-09-05T03:48:02.314Z,3.15
2022-09-05T03:57:05.593Z,2.60
2022-09-05T03:57:11.909Z,3.28
2022-09-05T03:57:38.826Z,2.45
2022-09-05T04:00:20.905Z,2.63
2022-09-05T04:08:10.687Z,7.28
2022-09-05T04:08:25.373Z,4.13
2022-09-05T04:08:57.068Z,3.17
2022-09-05T04:11:35.643Z,3.42
2022-09-05T04:14:08.510Z,2.90
2022-09-05T04:16:50.240Z,2.53
2022-09-05T04:19:26.554Z,5.22
2022-09-05T04:22:06.569Z,3.10
2022-09-05T04:24:44.066Z,3.00
2022-09-05T04:27:27.987Z,3.42
2022-09-05T04:30:04.950Z,2.92
2022-09-05T04:32:58.527Z,3.20
2022-09-05T04:35:38.704Z,2.95
2022-09-05T04:38:13.086Z,3.03
2022-09-05T04:40:45.778Z,2.92
2022-09-05T04:43:27.600Z,3.35
2022-09-05T04:46:02.735Z,3.72
2022-09-05T04:48:38.000Z,3.38
2022-09-05T04:51:11.684Z,3.15
2022-09-05T04:53:57.984Z,2.80
2022-09-05T04:56:31.602Z,4.57
2022-09-05T05:01:08.273Z,2.70
2022-09-05T05:06:10.845Z,3.15
2022-09-05T05:06:17.754Z,3.35
2022-09-05T05:07:46.445Z,2.78
2022-09-05T05:12:04.185Z,2.50
2022-09-05T05:17:56.088Z,3.40
2022-09-05T05:18:15.637Z,3.25
2022-09-05T05:19:18.647Z,4.55
2022-09-05T05:21:51.859Z,3.13
2022-09-05T05:24:25.019Z,3.88
2022-09-05T05:26:59.963Z,4.07
2022-09-05T05:29:39.272Z,3.13
2022-09-05T05:32:08.699Z,3.65
2022-09-05T05:34:44.294Z,4.40
2022-09-05T05:37:19.567Z,3.45
2022-09-05T05:39:52.631Z,3.30
2022-09-05T05:42:24.400Z,4.18
2022-09-05T05:44:54.683Z,4.63
2022-09-05T05:47:31.424Z,7.22
2022-09-05T05:50:11.445Z,3.45
2022-09-05T05:52:51.166Z,3.08
2022-09-05T05:55:53.586Z,3.38
2022-09-05T05:58:35.372Z,4.50
2022-09-05T06:01:41.292Z,3.05
2022-09-05T06:04:44.863Z,3.33
2022-09-05T06:07:27.444Z,3.38
2022-09-05T06:14:24.838Z,3.55
2022-09-05T06:14:55.255Z,7.53
2022-09-05T06:16:59.414Z,4.10
2022-09-05T06:21:34.568Z,4.70
2022-09-05T06:23:39.411Z,3.13
2022-09-05T06:26:42.730Z,4.68
2022-09-05T06:29:34.501Z,4.00
2022-09-05T06:32:25.672Z,3.70
2022-09-05T06:35:17.752Z,5.50
2022-09-05T06:37:54.438Z,6.43
2022-09-05T06:40:33.047Z,7.05
2022-09-05T06:43:14.410Z,6.15
2022-09-05T06:46:03.707Z,8.13
2022-09-05T06:48:47.028Z,5.13
2022-09-05T06:52:17.899Z,4.47
2022-09-05T06:55:18.294Z,7.85
2022-09-05T06:58:10.636Z,3.80
2022-09-05T07:00:47.672Z,10.80
2022-09-05T07:03:28.649Z,15.25
2022-09-05T07:06:05.792Z,13.20
2022-09-05T07:08:48.086Z,10.50
2022-09-05T07:11:20.820Z,10.07
2022-09-05T07:13:58.282Z,8.93
2022-09-05T07:16:39.034Z,10.15
2022-09-05T07:19:24.395Z,8.80
2022-09-05T07:22:29.544Z,5.30
2022-09-05T07:25:08.793Z,5.25
2022-09-05T07:28:26.148Z,7.80
2022-09-05T07:30:34.648Z,3.70
2022-09-05T07:33:05.255Z,4.28
2022-09-05T07:35:42.185Z,4.93
2022-09-05T07:38:15.011Z,6.15
2022-09-05T07:40:51.805Z,6.03
2022-09-05T07:43:24.538Z,5.18
2022-09-05T07:46:06.359Z,4.25
2022-09-05T07:48:38.637Z,6.40
2022-09-05T07:54:30.026Z,6.60
2022-09-05T07:56:58.644Z,8.95
2022-09-05T07:59:41.387Z,4.95
2022-09-05T08:02:12.597Z,6.65
2022-09-05T08:04:42.482Z,6.00
2022-09-05T08:07:45.859Z,7.60
2022-09-05T08:10:10.675Z,8.35
2022-09-05T08:13:22.691Z,5.60
2022-09-05T08:16:10.154Z,3.40
2022-09-05T08:18:30.721Z,4.25
2022-09-05T08:21:04.384Z,4.40
2022-09-05T08:23:47.360Z,3.58
2022-09-05T08:26:21.873Z,6.70
2022-09-05T08:28:57.555Z,6.32
2022-09-05T08:31:35.621Z,5.68
2022-09-05T08:34:18.523Z,4.78
2022-09-05T08:37:01.796Z,4.25
2022-09-05T08:39:33.017Z,3.63
2022-09-05T08:42:14.338Z,3.50
2022-09-05T08:46:40.696Z,5.03
2022-09-05T08:47:49.206Z,5.68
2022-09-05T08:50:33.855Z,6.82
2022-09-05T08:53:28.408Z,6.93
2022-09-05T08:56:10.127Z,6.40
2022-09-05T08:59:27.263Z,4.63
2022-09-05T09:02:45.228Z,3.78
2022-09-05T09:05:01.813Z,5.70
2022-09-05T09:07:50.673Z,3.42
2022-09-05T09:10:32.512Z,4.35
2022-09-05T09:13:24.543Z,4.45
2022-09-05T09:16:04.610Z,3.83
2022-09-05T09:18:42.403Z,4.03
2022-09-05T09:21:32.368Z,7.03
2022-09-05T09:24:14.055Z,5.45
2022-09-05T09:27:01.070Z,3.92
2022-09-05T09:29:34.313Z,5.00
2022-09-05T09:32:07.512Z,4.53
2022-09-05T09:35:21.338Z,5.20
2022-09-05T09:38:13.619Z,2.92
2022-09-05T09:41:14.615Z,7.35
2022-09-05T09:44:07.575Z,5.00
2022-09-05T09:46:43.418Z,2.35
2022-09-05T09:49:30.580Z,4.43
2022-09-05T09:52:28.821Z,2.33
2022-09-05T09:55:40.941Z,2.25
2022-09-05T09:58:40.190Z,3.70
2022-09-05T10:01:36.209Z,2.05
2022-09-05T10:10:36.515Z,1.85
2022-09-05T10:10:46.165Z,2.33
2022-09-05T10:14:47.940Z,2.35
2022-09-05T10:17:47.735Z,2.17
2022-09-05T10:20:31.112Z,2.00
2022-09-05T10:23:26.290Z,2.03
2022-09-05T10:26:30.832Z,2.65
2022-09-05T10:29:35.064Z,2.75
2022-09-05T10:33:58.358Z,2.88
2022-09-05T10:35:14.947Z,3.00
2022-09-05T10:37:49.543Z,3.42
2022-09-05T10:40:23.066Z,2.65
2022-09-05T10:43:00.677Z,1.98
2022-09-05T10:45:38.456Z,1.90
2022-09-05T10:48:17.265Z,2.03
2022-09-05T10:50:50.572Z,2.95
2022-09-05T10:53:29.771Z,2.17
2022-09-05T10:56:14.274Z,2.38
2022-09-05T11:02:19.453Z,2.08
2022-09-05T11:02:27.747Z,1.83
2022-09-05T11:04:50.175Z,1.77
2022-09-05T11:07:29.316Z,3.75
2022-09-05T11:10:05.435Z,3.92
2022-09-05T11:12:58.459Z,2.25
2022-09-05T11:15:34.360Z,2.60
2022-09-05T11:18:04.921Z,1.58
2022-09-05T11:21:04.962Z,2.28
2022-09-05T11:23:47.090Z,1.50
2022-09-05T11:26:34.854Z,1.83
2022-09-05T11:29:08.001Z,2.28
2022-09-05T11:32:30.349Z,1.50
2022-09-05T11:39:52.702Z,2.90
2022-09-05T11:40:03.913Z,2.97
2022-09-05T11:41:33.755Z,1.63
2022-09-05T11:44:27.388Z,1.73
2022-09-05T11:47:40.955Z,3.63
2022-09-05T11:50:44.690Z,3.00
2022-09-05T11:53:52.080Z,2.33
2022-09-05T11:57:20.068Z,4.00
2022-09-05T12:00:33.469Z,1.50
2022-09-05T12:03:56.924Z,3.72
2022-09-05T12:06:47.992Z,2.85
2022-09-05T12:09:29.059Z,1.60
2022-09-05T12:12:34.199Z,1.60
2022-09-05T12:15:26.593Z,2.83
2022-09-05T12:18:19.509Z,2.78
2022-09-05T12:20:57.307Z,2.58
2022-09-05T12:24:08.305Z,1.35
2022-09-05T12:27:40.623Z,3.25
2022-09-05T12:29:36.121Z,1.38
2022-09-05T12:33:32.621Z,1.67
2022-09-05T12:36:10.757Z,1.95
2022-09-05T12:40:43.382Z,1.38
2022-09-05T12:41:43.150Z,2.20
2022-09-05T12:44:41.030Z,2.80
2022-09-05T12:47:22.817Z,1.60
2022-09-05T12:50:14.467Z,2.08
2022-09-05T12:52:46.917Z,2.45
2022-09-05T12:55:25.970Z,1.58
2022-09-05T13:02:58.786Z,2.65
2022-09-05T13:03:09.580Z,1.48
2022-09-05T13:04:16.576Z,1.52
2022-09-05T13:07:00.160Z,1.75
2022-09-05T13:09:39.362Z,1.73
2022-09-05T13:14:54.907Z,1.20
2022-09-05T13:15:23.655Z,1.33
2022-09-05T13:18:00.230Z,1.23
2022-09-05T13:20:38.337Z,3.70
2022-09-05T13:23:19.963Z,1.67
2022-09-05T13:25:57.923Z,2.85
2022-09-05T13:28:30.304Z,2.67
2022-09-05T13:37:53.664Z,2.70
2022-09-05T13:38:02.438Z,2.58
2022-09-05T13:38:12.700Z,1.50
2022-09-05T13:40:00.043Z,1.20
2022-09-05T13:42:32.856Z,1.30
2022-09-05T13:45:02.859Z,3.08
2022-09-05T13:47:54.280Z,2.20
2022-09-05T13:50:26.401Z,1.55
2022-09-05T13:52:59.541Z,1.40
2022-09-05T13:55:45.173Z,1.20
2022-09-05T13:58:20.369Z,2.67
2022-09-05T14:01:32.542Z,1.30
2022-09-05T14:08:02.088Z,1.55
2022-09-05T14:11:03.228Z,1.20
2022-09-05T14:13:44.114Z,1.10
2022-09-05T14:16:18.190Z,1.55
2022-09-05T14:19:02.680Z,1.20
2022-09-05T14:21:34.306Z,2.08
2022-09-05T14:24:10.081Z,2.38
2022-09-05T14:26:46.227Z,1.10
2022-09-05T14:29:20.340Z,2.10
2022-09-05T14:36:42.243Z,3.05
2022-09-05T14:37:39.023Z,1.50
2022-09-05T14:38:09.608Z,2.95
2022-09-05T14:41:30.649Z,3.03
2022-09-05T14:44:17.319Z,1.10
2022-09-05T14:47:02.665Z,2.03
2022-09-05T14:50:04.158Z,1.60
2022-09-05T14:52:35.523Z,3.22
2022-09-05T15:02:50.941Z,3.90
2022-09-05T15:02:51.203Z,1.38
2022-09-05T15:06:37.906Z,1.30
2022-09-05T15:12:14.330Z,2.25
2022-09-05T15:12:26.244Z,2.40
2022-09-05T15:14:58.464Z,1.60
2022-09-05T15:17:27.949Z,3.47
2022-09-05T15:20:06.702Z,2.60
2022-09-05T15:22:37.316Z,1.85
2022-09-05T15:25:17.097Z,3.22
2022-09-05T15:27:46.579Z,2.15
2022-09-05T15:30:20.911Z,3.17
2022-09-05T15:32:50.700Z,2.97
2022-09-05T15:35:37.940Z,1.33
2022-09-05T15:38:25.278Z,1.63
2022-09-05T15:41:17.262Z,3.08
2022-09-05T15:43:52.878Z,1.77
2022-09-05T15:46:29.483Z,1.40
2022-09-05T15:49:02.490Z,2.33
2022-09-05T15:51:44.506Z,2.85
2022-09-05T15:54:35.968Z,2.40
2022-09-05T15:57:17.863Z,2.17
2022-09-05T15:59:49.813Z,3.25
2022-09-05T16:02:23.012Z,3.42
2022-09-05T16:10:30.876Z,1.67
2022-09-05T16:10:37.632Z,1.95
2022-09-05T16:11:12.116Z,1.70
2022-09-05T16:13:36.809Z,3.22
2022-09-05T16:23:20.163Z,1.80
2022-09-05T16:23:26.208Z,1.48
2022-09-05T16:23:28.411Z,3.20
2022-09-05T16:25:03.518Z,2.22
2022-09-05T16:27:45.461Z,1.95
2022-09-05T16:30:25.273Z,2.88
2022-09-05T16:32:59.269Z,2.40
2022-09-05T16:35:27.891Z,2.63
2022-09-05T16:38:10.355Z,3.83
2022-09-05T16:40:43.591Z,2.13
2022-09-05T16:43:20.694Z,2.25
2022-09-05T16:46:03.525Z,2.65
2022-09-05T16:48:40.262Z,2.10
2022-09-05T16:51:34.807Z,2.17
2022-09-05T16:54:13.681Z,2.00
2022-09-05T16:56:47.406Z,1.80
2022-09-05T16:59:21.250Z,2.17
2022-09-05T17:02:07.904Z,2.58
2022-09-05T17:05:03.525Z,2.13
2022-09-05T17:07:48.090Z,3.72
2022-09-05T17:10:19.108Z,1.63
2022-09-05T17:12:52.115Z,1.75
2022-09-05T17:15:23.528Z,5.13
2022-09-05T17:18:19.064Z,3.03
2022-09-05T17:20:50.311Z,3.17
2022-09-05T17:29:16.046Z,2.33
2022-09-05T17:29:43.101Z,5.25
2022-09-05T17:29:48.957Z,3.25
2022-09-05T17:32:04.486Z,1.90
2022-09-05T17:35:17.260Z,3.10
2022-09-05T17:38:12.088Z,4.20
2022-09-05T17:41:10.111Z,3.40
2022-09-05T17:43:40.051Z,4.50
2022-09-05T17:46:29.102Z,7.00
2022-09-05T17:49:06.094Z,3.95
2022-09-05T17:52:18.158Z,2.50
2022-09-05T17:54:50.010Z,2.50
2022-09-05T17:57:45.862Z,3.05
2022-09-05T18:01:04.347Z,3.47
2022-09-05T18:04:17.082Z,3.28
2022-09-05T18:06:59.965Z,3.53
2022-09-05T18:13:31.575Z,2.25
2022-09-05T18:16:12.029Z,2.53
2022-09-05T18:19:33.468Z,4.28
2022-09-05T18:21:49.548Z,4.10
2022-09-05T18:24:24.922Z,4.65
2022-09-05T18:27:47.468Z,5.80
2022-09-05T18:30:06.897Z,4.25
2022-09-05T18:32:45.254Z,4.63
2022-09-05T18:35:36.280Z,5.45
2022-09-05T18:38:31.109Z,4.25
2022-09-05T18:41:18.209Z,5.03
2022-09-05T18:44:13.580Z,5.78
2022-09-05T18:46:51.543Z,4.00
2022-09-05T18:50:24.155Z,6.60
2022-09-05T18:52:23.367Z,4.55
2022-09-05T18:56:10.481Z,6.13
2022-09-05T18:57:49.679Z,6.78
2022-09-05T19:00:35.254Z,3.88
2022-09-05T19:03:18.519Z,6.88
2022-09-05T19:05:50.797Z,3.53
2022-09-05T19:08:28.975Z,5.60
2022-09-05T19:11:27.517Z,4.63
2022-09-05T19:14:25.414Z,4.03
2022-09-05T19:16:50.657Z,4.22
2022-09-05T19:19:24.620Z,5.72
2022-09-05T19:22:32.004Z,7.32
2022-09-05T19:24:45.922Z,5.15
2022-09-05T19:30:48.951Z,4.55
2022-09-05T19:36:49.646Z,5.03
2022-09-05T19:37:02.252Z,3.70
2022-09-05T19:37:13.757Z,3.45
2022-09-05T19:40:15.717Z,2.78
2022-09-05T19:47:31.321Z,4.18
2022-09-05T19:47:41.043Z,4.30
2022-09-05T19:47:56.567Z,6.43
2022-09-05T19:50:21.146Z,8.52
2022-09-05T19:52:53.104Z,4.25
2022-09-05T19:55:23.634Z,5.32
2022-09-05T19:58:19.153Z,4.45
2022-09-05T20:00:50.361Z,3.65
2022-09-05T20:03:34.572Z,4.10
2022-09-05T20:06:24.756Z,3.15
2022-09-05T20:09:10.869Z,5.78
2022-09-05T20:11:46.354Z,2.63
2022-09-05T20:14:20.666Z,4.32
2022-09-05T20:16:50.734Z,2.65
2022-09-05T20:19:28.793Z,2.78
2022-09-05T20:21:59.825Z,6.45
2022-09-05T20:24:49.052Z,4.70
2022-09-05T20:27:17.355Z,2.97
2022-09-05T20:29:55.614Z,3.03
2022-09-05T20:32:39.698Z,3.50
2022-09-05T20:39:08.626Z,3.28
2022-09-05T20:43:18.295Z,2.47
2022-09-05T20:43:19.749Z,3.75
2022-09-05T20:43:57.901Z,3.00
2022-09-05T20:50:04.359Z,5.45
2022-09-05T20:54:06.557Z,4.03
2022-09-05T20:54:18.233Z,3.45
2022-09-05T20:55:38.633Z,3.28
2022-09-05T20:58:11.154Z,2.65
2022-09-05T21:01:15.708Z,3.92
2022-09-05T21:03:36.623Z,5.68
2022-09-05T21:06:22.555Z,4.40
2022-09-05T21:08:52.463Z,3.15
2022-09-05T21:11:30.172Z,3.92
2022-09-05T21:14:02.731Z,2.88
2022-09-05T21:16:33.602Z,5.57
2022-09-05T21:19:01.495Z,6.03
2022-09-05T21:21:32.294Z,3.63
2022-09-05T21:24:15.811Z,3.50
2022-09-05T21:26:47.626Z,3.03
2022-09-05T21:29:17.580Z,3.03
2022-09-05T21:31:50.811Z,5.13
2022-09-05T21:34:27.987Z,3.88
2022-09-05T21:37:06.777Z,4.10
2022-09-05T21:39:39.987Z,2.58
2022-09-05T21:43:21.676Z,2.92
2022-09-05T21:47:37.389Z,2.75
2022-09-05T21:47:53.077Z,2.40
2022-09-05T21:50:31.286Z,4.32
2022-09-05T21:53:45.267Z,2.20
2022-09-05T21:59:18.106Z,2.85
2022-09-05T21:59:18.748Z,3.00
2022-09-05T22:01:51.951Z,3.60
2022-09-05T22:04:19.011Z,2.53
2022-09-05T22:06:48.393Z,3.42
2022-09-05T22:09:18.813Z,2.83
2022-09-05T22:11:50.382Z,3.83
2022-09-05T22:14:19.101Z,2.60
2022-09-05T22:16:50.127Z,2.95
2022-09-05T22:19:22.680Z,2.35
2022-09-05T22:21:53.523Z,2.55
2022-09-05T22:24:23.909Z,3.90
2022-09-05T22:27:12.179Z,2.58
2022-09-05T22:29:41.247Z,5.90
2022-09-05T22:32:09.276Z,3.08
2022-09-05T22:34:37.146Z,2.13
2022-09-05T22:37:05.069Z,2.90
2022-09-05T22:39:36.950Z,3.67
2022-09-05T22:42:10.124Z,1.70
2022-09-05T22:44:39.824Z,2.53
2022-09-05T22:47:08.595Z,3.08
2022-09-05T22:49:37.324Z,2.63
2022-09-05T22:52:06.527Z,2.20
2022-09-05T22:54:36.055Z,2.80
2022-09-05T22:57:04.424Z,2.10
2022-09-05T22:59:32.712Z,4.47
2022-09-05T23:02:00.566Z,2.65
2022-09-05T23:04:28.969Z,2.95
2022-09-05T23:06:56.927Z,2.15
2022-09-05T23:09:24.796Z,2.25
2022-09-05T23:11:53.931Z,2.60
2022-09-05T23:14:21.734Z,1.80
2022-09-05T23:16:49.522Z,2.22
2022-09-05T23:19:17.322Z,1.95
2022-09-05T23:21:45.121Z,1.77
2022-09-05T23:24:12.979Z,2.50
2022-09-05T23:26:40.813Z,1.88
2022-09-05T23:29:09.980Z,3.35
2022-09-05T23:31:37.819Z,2.28
2022-09-05T23:34:05.627Z,1.90
2022-09-05T23:36:33.557Z,1.73
2022-09-05T23:39:01.415Z,2.08
2022-09-05T23:41:29.374Z,3.63
2022-09-05T23:43:57.331Z,5.13
2022-09-05T23:46:26.613Z,2.15
2022-09-05T23:48:54.459Z,1.88
2022-09-05T23:51:22.284Z,4.03
2022-09-05T23:53:50.078Z,3.50
2022-09-05T23:56:17.887Z,3.78
2022-09-05T23:58:45.719Z,3.60
